Time;durP1;ratioP1;P1;durP2;ratioP2;P2;SDS_P1;SDS_P2;PMS_P1;PMS_P2;Temp;Humidity;BMP_temperature;BMP_pressure;BME280_temperature;BME280_humidity;BME280_pressure;Samples;Min_cycle;Max_cycle;Signal;HPM_P1;HPM_P2
2021/06/12 00:00:29;;;;;;;44.28;33.13;;;;;;;-150.07;56.21;63525.72;4959480;28;20035;-83
2021/06/12 00:02:57;;;;;;;39.05;32.35;;;;;;;-150.07;55.48;63787.41;4957793;28;20094;-84
2021/06/12 00:05:24;;;;;;;41.20;31.00;;;;;;;-150.07;55.60;63762.28;4966666;28;20118;-83
2021/06/12 00:07:51;;;;;;;47.58;34.42;;;;;;;-150.07;55.60;63814.63;4970771;28;20107;-86
2021/06/12 00:10:25;;;;;;;43.40;33.38;;;;;;;-150.07;55.96;63693.19;4984128;28;20484;-80
2021/06/12 00:12:52;;;;;;;38.05;30.25;;;;;;;-150.07;55.20;63910.94;4978066;28;20030;-80
2021/06/12 00:15:22;;;;;;;35.58;29.00;;;;;;;-150.07;55.15;63707.84;4970176;28;20031;-78
2021/06/12 00:17:49;;;;;;;37.17;28.15;;;;;;;-150.07;54.93;63936.09;4975273;28;20050;-84
2021/06/12 00:20:23;;;;;;;28.92;24.95;;;;;;;-150.07;55.04;63804.16;4978226;28;20445;-84
2021/06/12 00:22:50;;;;;;;31.90;24.25;;;;;;;-150.07;54.08;64681.56;4970346;28;20028;-83
2021/06/12 00:25:21;;;;;;;27.08;24.17;;;;;;;-150.07;53.73;64086.84;4974612;28;20037;-79
2021/06/12 00:27:48;;;;;;;27.23;22.85;;;;;;;-150.07;53.08;64895.16;4974596;28;20042;-79
2021/06/12 00:30:15;;;;;;;28.33;24.05;;;;;;;-150.07;52.86;63986.34;4959504;28;20038;-80
2021/06/12 00:32:42;;;;;;;24.88;22.20;;;;;;;-150.07;53.11;64836.53;4959343;28;20027;-80
2021/06/12 00:35:11;;;;;;;23.42;20.90;;;;;;;-150.07;52.72;64153.84;4958227;28;20086;-79
2021/06/12 00:37:39;;;;;;;26.40;23.42;;;;;;;-150.07;52.68;63823.00;4967210;28;20043;-81
2021/06/12 00:40:12;;;;;;;28.33;22.13;;;;;;;-150.07;52.09;64350.69;4963465;28;20102;-80
2021/06/12 00:42:40;;;;;;;28.20;23.17;;;;;;;-150.07;52.02;64442.81;4964110;28;20019;-82
2021/06/12 00:45:12;;;;;;;24.67;21.70;;;;;;;-150.07;52.63;64354.88;4971341;28;20023;-84
2021/06/12 00:47:40;;;;;;;29.65;24.25;;;;;;;-150.07;51.50;64480.50;4969650;28;20023;-79
2021/06/12 00:50:08;;;;;;;28.77;25.08;;;;;;;-150.07;51.09;64440.72;4987116;28;20115;-79
2021/06/12 00:52:37;;;;;;;28.65;22.67;;;;;;;-150.07;52.32;64461.66;4979643;28;20026;-81
2021/06/12 00:55:05;;;;;;;29.35;25.15;;;;;;;-150.07;51.38;64461.66;4991710;28;20053;-80
2021/06/12 00:57:34;;;;;;;30.48;24.83;;;;;;;-150.07;51.30;65156.97;4979924;28;20030;-81
2021/06/12 01:00:01;;;;;;;32.45;26.88;;;;;;;-150.07;51.64;64377.91;4967049;28;20384;-79
2021/06/12 01:02:28;;;;;;;26.08;22.40;;;;;;;-150.07;50.56;64534.97;4965543;28;20090;-79
2021/06/12 01:04:55;;;;;;;28.75;25.48;;;;;;;-150.07;52.11;64461.66;4972849;28;20039;-82
2021/06/12 01:07:21;;;;;;;28.77;25.65;;;;;;;-150.07;54.65;64463.75;4979791;28;20362;-79
2021/06/12 01:09:48;;;;;;;32.03;24.85;;;;;;;-150.07;54.97;64342.31;4958372;28;20031;-80
2021/06/12 01:12:18;;;;;;;35.33;26.77;;;;;;;-150.07;54.51;64227.13;4956256;28;20028;-81
2021/06/12 01:14:52;;;;;;;31.02;26.90;;;;;;;-150.07;54.78;63814.63;4956257;28;20027;-79
2021/06/12 01:17:47;;;;;;;31.75;26.67;;;;;;;-150.07;55.49;64158.03;4957634;28;20019;-78
2021/06/12 01:20:33;;;;;;;35.95;28.35;;;;;;;-150.07;55.74;63998.91;4958248;28;20643;-78
2021/06/12 01:26:56;;;;;;;37.22;26.60;;;;;;;-150.07;56.57;64024.03;4963091;28;20093;-89
2021/06/12 01:29:34;;;;;;;36.60;29.80;;;;;;;-150.07;56.32;63902.56;4963721;28;20035;-91
2021/06/12 01:32:03;;;;;;;38.67;30.55;;;;;;;-150.07;56.80;63885.81;4944675;29;20062;-78
2021/06/12 01:34:32;;;;;;;39.47;30.58;;;;;;;-150.07;55.65;64595.69;4953497;28;20062;-81
2021/06/12 01:37:01;;;;;;;37.53;29.77;;;;;;;-150.07;55.36;63927.69;4957704;28;20028;-81
2021/06/12 01:39:30;;;;;;;40.97;29.57;;;;;;;-150.07;54.90;64170.59;4956557;28;20119;-82
2021/06/12 01:42:02;;;;;;;38.33;29.17;;;;;;;-150.07;56.38;63940.25;4956673;28;20275;-83
2021/06/12 01:44:31;;;;;;;36.13;31.05;;;;;;;-150.07;57.48;64405.13;4969796;28;20037;-81
2021/06/12 01:46:58;;;;;;;38.30;30.00;;;;;;;-150.07;56.80;63841.84;4963939;28;20037;-81
2021/06/12 01:49:26;;;;;;;31.13;27.80;;;;;;;-150.07;56.06;64593.59;4965603;28;20286;-80
2021/06/12 01:51:54;;;;;;;40.47;32.63;;;;;;;-150.07;56.79;63624.13;4956366;28;20083;-81
2021/06/12 01:54:22;;;;;;;43.53;33.35;;;;;;;-150.07;56.94;64405.13;4956067;28;20034;-81
2021/06/12 01:56:50;;;;;;;43.25;31.55;;;;;;;-150.07;57.48;63898.38;4956082;28;20023;-84
2021/06/12 01:59:18;;;;;;;48.55;31.25;;;;;;;-150.07;56.94;64007.28;4970884;28;20024;-82
2021/06/12 02:01:49;;;;;;;42.05;30.23;;;;;;;-150.07;56.31;63919.31;4971466;28;20074;-81
2021/06/12 02:04:18;;;;;;;36.38;29.38;;;;;;;-150.07;55.80;64886.78;4981282;28;20053;-79
2021/06/12 02:06:49;;;;;;;33.95;26.15;;;;;;;-150.07;55.70;64258.53;4975824;28;20054;-78
2021/06/12 02:09:18;;;;;;;34.80;30.27;;;;;;;-150.07;56.20;64120.34;4968888;28;20208;-81
2021/06/12 02:11:46;;;;;;;42.53;31.20;;;;;;;-150.07;55.75;63994.72;4969323;28;20032;-80
2021/06/12 02:14:14;;;;;;;48.47;29.10;;;;;;;-150.07;55.81;64275.28;4959312;28;20054;-80
2021/06/12 02:16:42;;;;;;;40.53;30.67;;;;;;;-150.07;54.94;64323.47;4959073;28;20039;-80
2021/06/12 02:19:11;;;;;;;44.25;32.33;;;;;;;-150.07;54.38;64068.00;4958722;28;20421;-79
2021/06/12 02:21:40;;;;;;;37.17;32.15;;;;;;;-150.07;54.47;64258.53;4959838;28;20015;-80
2021/06/12 02:24:08;;;;;;;39.90;31.80;;;;;;;-150.07;55.64;64116.16;4957400;28;20035;-80
2021/06/12 02:26:42;;;;;;;37.67;32.25;;;;;;;-150.07;55.98;64084.75;4957626;28;20572;-82
2021/06/12 02:29:12;;;;;;;38.33;34.30;;;;;;;-150.07;54.67;64057.53;4956962;28;20551;-81
2021/06/12 02:31:43;;;;;;;;;;;;;;;-150.07;55.31;64210.38;4956071;28;20033;-81
2021/06/12 02:34:10;;;;;;;38.88;32.72;;;;;;;-150.07;55.27;64202.00;4969960;28;19918;-81
2021/06/12 02:36:37;;;;;;;38.70;34.47;;;;;;;-150.07;55.06;64229.22;4956412;28;20023;-80
2021/06/12 02:39:08;;;;;;;40.58;34.05;;;;;;;-150.07;55.33;63971.69;4967917;28;20034;-81
2021/06/12 02:41:35;;;;;;;38.50;34.45;;;;;;;-150.07;55.32;64229.22;4975909;28;20034;-82
2021/06/12 02:44:02;;;;;;;46.33;36.72;;;;;;;-150.07;55.60;64034.50;4975061;28;20062;-80
2021/06/12 02:46:32;;;;;;;42.75;37.65;;;;;;;-150.07;54.90;64325.56;4956590;28;20023;-80
2021/06/12 02:49:03;;;;;;;46.45;39.15;;;;;;;-150.07;55.12;63890.00;4955643;28;20046;-80
2021/06/12 02:51:34;;;;;;;42.42;36.42;;;;;;;-150.07;55.27;64099.41;4970057;28;20023;-80
2021/06/12 02:54:01;;;;;;;46.70;39.42;;;;;;;-150.07;55.40;64013.56;4961301;28;20031;-80
2021/06/12 02:56:31;;;;;;;47.22;38.15;;;;;;;-150.07;54.80;64013.56;4964032;28;20027;-81
2021/06/12 02:59:02;;;;;;;44.90;35.40;;;;;;;-150.07;54.85;64258.53;4967774;28;20006;-80
2021/06/12 03:01:30;;;;;;;47.13;38.50;;;;;;;-150.07;55.10;64685.75;4966716;28;20028;-81
2021/06/12 03:03:58;;;;;;;46.17;38.70;;;;;;;-150.07;54.25;64287.84;4968927;28;20023;-80
2021/06/12 03:06:27;;;;;;;52.28;42.45;;;;;;;-150.07;54.52;63973.78;4970923;28;20023;-81
2021/06/12 03:08:54;;;;;;;54.75;45.67;;;;;;;-150.07;54.85;64174.78;4972899;28;20034;-79
2021/06/12 03:11:24;;;;;;;53.85;39.25;;;;;;;-150.07;54.40;64214.56;4965368;28;20050;-79
2021/06/12 03:13:54;;;;;;;50.22;39.80;;;;;;;-150.07;54.18;64413.50;4970082;28;20028;-83
2021/06/12 03:16:23;;;;;;;44.75;37.97;;;;;;;-150.07;54.95;64312.97;4977023;28;20022;-79
2021/06/12 03:18:52;;;;;;;45.08;36.67;;;;;;;-150.07;54.70;64384.19;4979280;28;20038;-90
2021/06/12 03:21:26;;;;;;;43.23;36.77;;;;;;;-150.07;54.12;64476.31;4966789;28;20039;-89
2021/06/12 03:23:56;;;;;;;46.28;38.03;;;;;;;-150.07;54.25;64342.31;4967755;28;20047;-80
2021/06/12 03:26:24;;;;;;;45.55;37.40;;;;;;;-150.07;54.08;64375.81;4966118;28;20138;-86
2021/06/12 03:28:51;;;;;;;43.42;35.97;;;;;;;-150.07;54.33;64279.47;4973743;28;20042;-86
2021/06/12 03:31:19;;;;;;;42.15;37.08;;;;;;;-150.07;53.92;64166.41;4971556;28;20019;-84
2021/06/12 03:33:47;;;;;;;49.65;40.08;;;;;;;-150.07;54.13;64409.31;4971724;28;20042;-81
2021/06/12 03:36:14;;;;;;;49.08;37.45;;;;;;;-150.07;54.71;64015.66;4953965;28;20460;-80
2021/06/12 03:38:41;;;;;;;44.50;35.65;;;;;;;-150.07;54.11;64581.03;4959127;28;20601;-79
2021/06/12 03:41:09;;;;;;;43.60;37.58;;;;;;;-150.07;53.47;64591.50;4956439;28;20039;-77
2021/06/12 03:43:37;;;;;;;49.05;41.03;;;;;;;-150.07;53.41;65083.66;4954891;28;20027;-83
2021/06/12 03:46:06;;;;;;;47.05;41.92;;;;;;;-150.07;53.81;64260.63;4976754;28;20031;-88
2021/06/12 03:48:34;;;;;;;49.33;41.67;;;;;;;-150.07;55.74;64153.84;4965246;28;20038;-92
2021/06/12 03:51:19;;;;;;;48.80;40.00;;;;;;;-150.07;55.88;64093.13;4967452;28;20035;-92
2021/06/12 03:53:47;;;;;;;44.50;39.35;;;;;;;-150.07;55.80;64641.75;4961678;28;20078;-85
2021/06/12 03:56:31;;;;;;;47.33;42.15;;;;;;;-150.07;55.91;64178.97;4954051;28;20039;-86
2021/06/12 03:58:58;;;;;;;46.95;39.67;;;;;;;-150.07;56.13;63954.94;4956433;28;20437;-85
2021/06/12 04:01:25;;;;;;;44.80;38.20;;;;;;;-150.07;55.97;64266.91;4955089;28;20066;-84
2021/06/12 04:03:52;;;;;;;40.25;35.70;;;;;;;-150.07;55.22;64170.59;4968544;28;20039;-82
2021/06/12 04:06:20;;;;;;;43.38;36.70;;;;;;;-150.07;55.64;64916.13;4958515;28;20035;-82
2021/06/12 04:08:49;;;;;;;46.45;36.55;;;;;;;-150.07;55.95;64091.03;4954546;28;20106;-82
2021/06/12 04:11:16;;;;;;;44.83;37.75;;;;;;;-150.07;55.69;64053.34;4953017;28;20090;-81
2021/06/12 04:13:43;;;;;;;42.90;36.42;;;;;;;-150.07;55.06;64275.28;4960928;28;20035;-81
2021/06/12 04:16:12;;;;;;;39.05;33.60;;;;;;;-150.07;54.60;64061.72;4972399;28;20029;-77
2021/06/12 04:18:38;;;;;;;41.75;35.28;;;;;;;-150.07;53.76;64478.41;4968455;28;20067;-78
2021/06/12 04:21:06;;;;;;;40.47;35.50;;;;;;;-150.07;53.54;64528.69;4954937;28;20055;-79
2021/06/12 04:23:33;;;;;;;39.00;34.78;;;;;;;-150.07;53.74;64511.94;4960516;28;20023;-80
2021/06/12 04:26:00;;;;;;;37.08;32.75;;;;;;;-150.07;54.08;64111.97;4950868;28;20023;-80
2021/06/12 04:28:27;;;;;;;33.88;30.30;;;;;;;-150.07;54.34;64384.19;4960406;28;20023;-79
2021/06/12 04:30:53;;;;;;;33.47;28.70;;;;;;;-150.07;54.76;64380.00;4959193;28;20027;-78
2021/06/12 04:33:20;;;;;;;28.90;25.65;;;;;;;-150.07;55.06;64206.19;4957463;28;20031;-88
2021/06/12 04:35:47;;;;;;;27.33;24.33;;;;;;;-150.07;54.85;64411.41;4958322;28;20504;-84
2021/06/12 04:38:14;;;;;;;30.10;23.25;;;;;;;-150.07;55.20;64409.31;4955170;28;20085;-81
2021/06/12 04:40:41;;;;;;;23.25;20.90;;;;;;;-150.07;55.88;64394.66;4967168;28;20028;-77
2021/06/12 04:43:09;;;;;;;20.98;18.35;;;;;;;-150.07;55.48;64191.53;4968724;28;20154;-79
2021/06/12 04:45:36;;;;;;;23.55;21.15;;;;;;;-150.07;56.45;64254.34;4950812;28;20031;-82
2021/06/12 04:48:04;;;;;;;23.08;18.85;;;;;;;-150.07;56.86;64467.94;4948506;28;20125;-79
2021/06/12 04:50:34;;;;;;;20.58;18.35;;;;;;;-150.07;57.94;63862.78;4955479;28;20027;-81
2021/06/12 04:53:02;;;;;;;22.42;18.92;;;;;;;-150.07;57.11;63848.13;4958652;28;20031;-80
2021/06/12 04:55:29;;;;;;;20.55;18.48;;;;;;;-150.07;57.73;64017.75;4958210;28;20030;-80
2021/06/12 04:57:56;;;;;;;20.77;18.02;;;;;;;-150.07;56.73;64210.38;4947317;28;20024;-79
2021/06/12 05:00:23;;;;;;;18.67;16.65;;;;;;;-150.07;56.30;64053.34;4941347;29;20035;-79
2021/06/12 05:02:50;;;;;;;18.92;17.00;;;;;;;-150.07;56.91;64618.72;4938824;29;20377;-81
2021/06/12 05:05:17;;;;;;;19.88;17.77;;;;;;;-150.07;58.12;63774.84;4937634;29;20038;-79
2021/06/12 05:07:44;;;;;;;20.95;16.27;;;;;;;-150.07;57.36;63986.34;4937920;29;20084;-80
2021/06/12 05:10:11;;;;;;;18.45;16.60;;;;;;;-150.07;56.28;64047.06;4937690;28;20051;-78
2021/06/12 05:12:41;;;;;;;16.80;15.18;;;;;;;-150.07;55.94;64254.34;4957738;28;20023;-78
2021/06/12 05:15:10;;;;;;;15.65;13.98;;;;;;;-150.07;56.51;64204.09;4956459;28;20031;-78
2021/06/12 05:17:40;;;;;;;18.05;16.13;;;;;;;-150.07;56.79;64103.59;4957561;28;20023;-80
2021/06/12 05:20:08;;;;;;;17.25;15.15;;;;;;;-150.07;57.44;63927.69;4957734;28;20034;-78
2021/06/12 05:22:35;;;;;;;18.70;16.75;;;;;;;-150.07;58.00;63963.31;4957094;28;20024;-80
2021/06/12 05:25:03;;;;;;;16.17;14.02;;;;;;;-150.07;57.99;63866.97;4957631;28;20102;-80
2021/06/12 05:27:30;;;;;;;16.98;15.27;;;;;;;-150.07;57.99;63931.88;4957402;28;20023;-81
2021/06/12 05:29:56;;;;;;;18.65;15.52;;;;;;;-150.07;57.39;63986.34;4956828;28;20571;-79
2021/06/12 05:32:23;;;;;;;18.60;16.05;;;;;;;-150.07;57.72;63973.78;4957941;28;20042;-80
2021/06/12 05:34:50;;;;;;;19.02;16.95;;;;;;;-150.07;58.90;63789.50;4957827;28;20061;-81
2021/06/12 05:37:17;;;;;;;18.30;16.45;;;;;;;-150.07;59.39;63785.31;4954579;28;20145;-83
2021/06/12 05:39:44;;;;;;;17.38;15.30;;;;;;;-150.07;59.19;63659.69;4954733;28;20109;-81
2021/06/12 05:42:11;;;;;;;17.05;15.30;;;;;;;-150.07;59.60;63737.16;4959303;28;20085;-82
2021/06/12 05:44:40;;;;;;;19.45;15.43;;;;;;;-150.07;58.95;63691.09;4977376;28;20042;-82
2021/06/12 05:47:07;;;;;;;18.20;15.40;;;;;;;-150.07;58.77;63789.50;4972033;28;20467;-82
2021/06/12 05:49:33;;;;;;;22.08;15.63;;;;;;;-150.07;57.85;63508.97;4953783;28;20035;-83
2021/06/12 05:52:00;;;;;;;18.08;14.45;;;;;;;-150.07;58.34;63894.19;4957371;28;20042;-83
2021/06/12 05:54:27;;;;;;;18.40;14.20;;;;;;;-150.07;57.81;63835.56;4947885;28;20485;-82
2021/06/12 05:56:55;;;;;;;14.68;13.18;;;;;;;-150.07;57.47;64543.34;4965077;28;20480;-78
2021/06/12 05:59:23;;;;;;;14.30;12.43;;;;;;;-150.07;56.09;64015.66;4965453;28;20125;-78
2021/06/12 06:01:50;;;;;;;14.02;12.20;;;;;;;-150.07;55.98;64855.38;4988047;28;20042;-79
2021/06/12 06:04:16;;;;;;;15.23;13.00;;;;;;;-150.07;55.87;64078.47;4977527;28;20027;-83
2021/06/12 06:06:43;;;;;;;11.68;10.38;;;;;;;-150.07;55.51;64287.84;4966658;28;20088;-80
2021/06/12 06:09:10;;;;;;;13.02;11.68;;;;;;;-150.07;56.26;64656.41;4957037;28;20421;-80
2021/06/12 06:11:37;;;;;;;13.18;11.68;;;;;;;-150.07;56.04;64294.13;4942435;29;20486;-78
2021/06/12 06:14:03;;;;;;;19.65;13.00;;;;;;;-150.07;56.02;64078.47;4938435;29;20043;-80
2021/06/12 06:16:30;;;;;;;12.18;10.60;;;;;;;-150.07;56.36;63837.66;4939662;29;20062;-80
2021/06/12 06:18:57;;;;;;;12.45;11.20;;;;;;;-150.07;56.86;63823.00;4937660;29;20394;-81
2021/06/12 06:21:24;;;;;;;14.80;12.50;;;;;;;-150.07;56.52;63856.50;4939228;29;20036;-79
2021/06/12 06:23:51;;;;;;;10.75;9.75;;;;;;;-150.07;55.83;64451.19;4960472;28;20493;-82
2021/06/12 06:26:18;;;;;;;10.75;9.70;;;;;;;-150.07;54.90;64421.88;4965735;28;20039;-78
2021/06/12 06:28:45;;;;;;;12.23;9.23;;;;;;;-150.07;54.65;64208.28;4968005;28;20030;-79
2021/06/12 06:31:11;;;;;;;15.05;11.07;;;;;;;-150.07;54.57;64423.97;4963423;28;20039;-81
2021/06/12 06:33:38;;;;;;;10.95;9.27;;;;;;;-150.07;54.29;64463.75;4968431;28;20023;-81
2021/06/12 06:36:05;;;;;;;14.00;11.18;;;;;;;-150.07;54.37;64191.53;4959075;28;20091;-76
2021/06/12 06:38:32;;;;;;;16.45;11.07;;;;;;;-150.07;54.45;64095.22;4957015;28;20026;-83
2021/06/12 06:40:59;;;;;;;14.43;10.95;;;;;;;-150.07;54.73;64191.53;4978407;28;20056;-84
2021/06/12 06:43:26;;;;;;;10.88;9.77;;;;;;;-150.07;55.40;64292.03;4994364;28;20117;-83
2021/06/12 06:45:53;;;;;;;13.00;10.55;;;;;;;-150.07;55.10;64400.94;4991768;28;20049;-79
2021/06/12 06:48:19;;;;;;;12.35;10.80;;;;;;;-150.07;54.10;64522.41;4997381;28;20042;-77
2021/06/12 06:50:47;;;;;;;9.95;8.95;;;;;;;-150.07;54.16;64505.63;4993827;28;20029;-78
2021/06/12 06:53:15;;;;;;;13.70;10.02;;;;;;;-150.07;53.44;64384.19;4987456;28;20023;-77
2021/06/12 06:55:42;;;;;;;11.68;9.93;;;;;;;-150.07;53.18;64572.66;4975873;28;20134;-78
2021/06/12 06:58:09;;;;;;;11.57;10.43;;;;;;;-150.07;53.55;64534.97;4996091;28;20077;-78
2021/06/12 07:00:36;;;;;;;9.95;8.95;;;;;;;-150.07;53.86;64447.00;4995482;28;20033;-78
2021/06/12 07:03:03;;;;;;;10.20;9.23;;;;;;;-150.07;54.35;64193.63;4995770;28;20040;-79
2021/06/12 07:05:30;;;;;;;9.60;8.52;;;;;;;-150.07;54.06;64346.50;4997754;28;20082;-85
2021/06/12 07:07:57;;;;;;;12.05;9.35;;;;;;;-150.07;54.16;65045.97;5003339;28;20026;-85
2021/06/12 07:10:24;;;;;;;11.23;10.05;;;;;;;-150.07;53.48;64218.75;5000732;28;20403;-87
2021/06/12 07:12:50;;;;;;;10.65;8.82;;;;;;;-150.07;53.73;64359.06;5005351;28;20032;-84
2021/06/12 07:15:18;;;;;;;10.85;9.75;;;;;;;-150.07;54.26;63961.22;4996825;28;20031;-84
2021/06/12 07:17:44;;;;;;;12.30;8.73;;;;;;;-150.07;54.67;64174.78;4986146;28;20056;-86
2021/06/12 07:20:12;;;;;;;12.20;10.23;;;;;;;-150.07;54.95;63739.25;4997357;28;20026;-84
2021/06/12 07:22:39;;;;;;;13.35;10.10;;;;;;;-150.07;54.51;64254.34;4992510;28;20100;-83
2021/06/12 07:25:06;;;;;;;10.02;9.05;;;;;;;-150.07;54.30;64183.16;4993579;28;20034;-85
2021/06/12 07:27:33;;;;;;;10.27;9.27;;;;;;;-150.07;53.03;64560.09;4996981;28;20038;-84
2021/06/12 07:30:00;;;;;;;11.85;8.40;;;;;;;-150.07;53.44;64639.66;4994988;28;20113;-83
2021/06/12 07:32:26;;;;;;;10.55;8.93;;;;;;;-150.07;52.89;64338.13;4982025;28;20376;-83
2021/06/12 07:34:53;;;;;;;10.48;9.35;;;;;;;-150.07;53.39;64158.03;4987801;28;20082;-83
2021/06/12 07:37:20;;;;;;;12.50;9.63;;;;;;;-150.07;54.19;64348.59;4975577;28;20073;-83
2021/06/12 07:39:47;;;;;;;11.02;9.35;;;;;;;-150.07;54.19;64143.38;4990526;28;20029;-87
2021/06/12 07:42:14;;;;;;;12.38;11.10;;;;;;;-150.07;55.08;64158.03;4995552;28;20038;-82
2021/06/12 07:44:41;;;;;;;13.73;10.07;;;;;;;-150.07;55.38;64061.72;4992107;28;20042;-83
2021/06/12 07:47:07;;;;;;;15.43;10.20;;;;;;;-150.07;55.82;63904.66;4994512;28;20027;-84
2021/06/12 07:49:34;;;;;;;13.30;9.35;;;;;;;-150.07;56.24;64817.69;4993964;28;20053;-84
2021/06/12 07:52:01;;;;;;;12.93;9.35;;;;;;;-150.07;57.02;63726.69;4989685;28;20033;-83
2021/06/12 07:54:28;;;;;;;13.50;10.25;;;;;;;-150.07;57.42;63743.44;4995273;28;20034;-84
2021/06/12 07:56:55;;;;;;;12.32;9.68;;;;;;;-150.07;56.52;64618.72;4995722;28;20030;-83
2021/06/12 07:59:21;;;;;;;11.60;8.05;;;;;;;-150.07;57.09;63831.38;4997054;28;20065;-83
2021/06/12 08:01:48;;;;;;;12.20;9.02;;;;;;;-150.07;57.16;63852.31;4994629;28;20026;-86
2021/06/12 08:04:15;;;;;;;11.95;9.15;;;;;;;-150.07;57.51;63429.41;5009277;28;20023;-83
2021/06/12 08:06:45;;;;;;;10.10;9.13;;;;;;;-150.07;59.02;63642.94;5001084;28;20036;-89
2021/06/12 08:09:12;;;;;;;12.18;9.57;;;;;;;-150.07;58.31;63663.88;5004014;28;20131;-80
2021/06/12 08:11:40;;;;;;;16.30;11.02;;;;;;;-150.07;58.47;63458.72;5011276;28;20098;-91
2021/06/12 08:14:14;;;;;;;13.77;10.80;;;;;;;-150.07;58.84;63381.25;4972497;28;20102;-94
2021/06/12 08:16:43;;;;;;;11.10;9.57;;;;;;;-150.07;58.56;63634.59;4990644;28;20026;-90
2021/06/12 08:19:11;;;;;;;25.65;9.70;;;;;;;-150.07;58.04;64509.84;4981706;28;20047;-89
2021/06/12 08:21:37;;;;;;;13.30;10.57;;;;;;;-150.07;57.99;63789.50;4981501;28;20099;-90
2021/06/12 08:24:05;;;;;;;13.50;10.55;;;;;;;-150.07;58.04;63502.69;4981576;28;20039;-89
2021/06/12 08:26:32;;;;;;;14.02;10.98;;;;;;;-150.07;58.43;64312.97;4982910;28;20026;-89
2021/06/12 08:28:59;;;;;;;16.20;11.80;;;;;;;-150.07;59.23;63538.28;4979957;28;20043;-85
2021/06/12 08:31:34;;;;;;;15.93;12.77;;;;;;;-150.07;59.61;62920.69;4987648;28;20011;-93
2021/06/12 08:34:16;;;;;;;18.65;11.38;;;;;;;-150.07;60.15;63333.09;4985552;28;20030;-92
2021/06/12 08:39:24;;;;;;;14.30;12.15;;;;;;;-150.07;61.07;63171.91;4965167;28;20074;-88
2021/06/12 08:41:51;;;;;;;12.77;10.90;;;;;;;-150.07;60.87;63289.13;4960300;28;20066;-86
2021/06/12 08:44:22;;;;;;;14.40;10.82;;;;;;;-150.07;61.87;63086.06;4955326;28;20127;-89
2021/06/12 08:46:50;;;;;;;12.45;9.40;;;;;;;-150.07;61.70;63251.47;4956212;28;20035;-79
2021/06/12 08:49:18;;;;;;;12.18;9.35;;;;;;;-150.07;61.05;63077.69;4957257;28;20051;-87
2021/06/12 08:51:45;;;;;;;8.15;7.13;;;;;;;-150.07;61.60;63130.03;4968174;28;20035;-87
2021/06/12 08:54:17;;;;;;;8.93;7.53;;;;;;;-150.07;61.63;63134.22;4976672;28;21072;-88
2021/06/12 08:56:46;;;;;;;10.10;8.60;;;;;;;-150.07;60.27;63297.50;4971568;28;20023;-84
2021/06/12 08:59:14;;;;;;;8.60;6.38;;;;;;;-150.07;60.65;63944.47;4956724;28;20027;-87
2021/06/12 09:01:43;;;;;;;7.30;6.43;;;;;;;-150.07;61.90;62824.41;4958067;28;20031;-80
2021/06/12 09:04:10;;;;;;;8.38;7.10;;;;;;;-150.07;61.58;62981.41;4956364;28;20171;-88
2021/06/12 09:06:37;;;;;;;8.18;6.05;;;;;;;-150.07;61.10;63008.63;4952393;28;20086;-80
2021/06/12 09:09:04;;;;;;;8.13;6.20;;;;;;;-150.07;61.35;63251.47;4954271;28;20397;-80
2021/06/12 09:11:35;;;;;;;9.35;8.02;;;;;;;-150.07;61.60;62828.59;4954383;28;20039;-80
2021/06/12 09:14:02;;;;;;;9.40;6.72;;;;;;;-150.07;61.30;63167.72;4953503;28;20046;-78
2021/06/12 09:16:38;;;;;;;8.07;6.60;;;;;;;-150.07;61.25;63079.78;4954601;28;20024;-80
2021/06/12 09:19:16;;;;;;;10.93;6.93;;;;;;;-150.07;61.68;63328.91;4955106;28;20050;-79
2021/06/12 09:21:44;;;;;;;12.95;6.85;;;;;;;-150.07;61.97;62822.31;4955080;29;20043;-81
2021/06/12 09:24:29;;;;;;;7.75;5.68;;;;;;;-150.07;62.25;62853.72;4954901;28;20038;-81
2021/06/12 09:27:16;;;;;;;7.63;5.68;;;;;;;-150.07;63.03;62908.16;4956350;28;20049;-85
2021/06/12 09:29:46;;;;;;;6.63;5.55;;;;;;;-150.07;62.82;62962.56;4954655;28;20034;-81
2021/06/12 09:32:19;;;;;;;7.05;6.35;;;;;;;-150.07;62.96;62880.94;4960937;28;20046;-80
2021/06/12 09:34:50;;;;;;;6.93;5.88;;;;;;;-150.07;62.41;62943.72;4972644;28;20034;-77
2021/06/12 09:37:22;;;;;;;9.45;6.07;;;;;;;-150.07;62.40;62736.50;4974772;28;20035;-77
2021/06/12 09:40:13;;;;;;;7.07;6.38;;;;;;;-150.07;61.77;62922.78;4959305;28;20032;-78
2021/06/12 09:42:48;;;;;;;5.38;4.90;;;;;;;-150.07;61.45;63111.19;4956008;28;20416;-81
2021/06/12 09:45:36;;;;;;;6.32;5.75;;;;;;;-150.07;61.20;63150.97;4951862;29;20038;-78
2021/06/12 09:48:12;;;;;;;7.85;7.13;;;;;;;-150.07;61.07;63090.25;4954345;28;20028;-78
2021/06/12 09:50:39;;;;;;;10.68;7.50;;;;;;;-150.07;61.07;63094.44;4949117;29;20042;-78
2021/06/12 09:53:37;;;;;;;7.38;6.65;;;;;;;-150.07;60.55;63201.22;4954295;28;20039;-79
2021/06/12 09:56:11;;;;;;;8.98;6.75;;;;;;;-150.07;60.04;63249.38;4956260;29;20075;-79
2021/06/12 09:58:38;;;;;;;7.93;7.07;;;;;;;-150.07;59.44;63312.16;4963578;28;20034;-79
2021/06/12 10:01:09;;;;;;;7.72;7.03;;;;;;;-150.07;59.14;63398.00;4967598;28;20019;-78
2021/06/12 10:03:36;;;;;;;9.88;8.27;;;;;;;-150.07;59.57;63521.53;4967187;29;20539;-79
2021/06/12 10:06:14;;;;;;;8.85;7.97;;;;;;;-150.07;59.87;63249.38;4962700;28;20031;-79
2021/06/12 10:08:42;;;;;;;7.82;7.13;;;;;;;-150.07;59.40;63636.69;4969444;28;20090;-78
2021/06/12 10:11:10;;;;;;;9.40;8.05;;;;;;;-150.07;58.85;63450.34;4968740;28;20062;-78
2021/06/12 10:13:37;;;;;;;9.32;8.50;;;;;;;-150.07;57.89;63490.13;4958905;28;20574;-78
2021/06/12 10:16:05;;;;;;;8.50;7.63;;;;;;;-150.07;57.97;63730.88;4958048;29;20523;-79
2021/06/12 10:18:33;;;;;;;13.68;10.98;;;;;;;-150.07;58.09;63689.00;4957342;29;20051;-79
2021/06/12 10:21:01;;;;;;;12.23;10.85;;;;;;;-150.07;58.27;63372.88;4956790;28;20078;-78
2021/06/12 10:23:28;;;;;;;14.00;12.52;;;;;;;-150.07;58.86;63335.19;4955510;28;20031;-78
2021/06/12 10:25:55;;;;;;;13.38;11.02;;;;;;;-150.07;59.03;63033.75;4956171;29;20412;-77
2021/06/12 10:28:23;;;;;;;14.20;11.82;;;;;;;-150.07;59.24;63303.78;4956232;29;20027;-78
2021/06/12 10:30:50;;;;;;;14.68;12.52;;;;;;;-150.07;59.75;63680.63;4956340;28;20027;-79
2021/06/12 10:33:19;;;;;;;13.80;11.88;;;;;;;-150.07;59.86;63274.47;4958353;29;20405;-78
2021/06/12 10:35:46;;;;;;;15.68;11.25;;;;;;;-150.07;59.87;62996.06;4966306;28;20055;-79
2021/06/12 10:38:17;;;;;;;13.98;11.98;;;;;;;-150.07;59.07;63102.81;4968179;28;20039;-79
2021/06/12 10:40:48;;;;;;;13.20;11.80;;;;;;;-150.07;58.89;63425.22;4965638;28;20110;-80
2021/06/12 10:43:20;;;;;;;14.52;10.35;;;;;;;-150.07;58.29;63439.88;4969810;28;20031;-80
2021/06/12 10:46:09;;;;;;;10.48;9.43;;;;;;;-150.07;58.56;63483.84;4977892;28;20227;-80
2021/06/12 10:48:56;;;;;;;13.25;10.10;;;;;;;-150.07;58.57;63316.34;4967830;28;20030;-79
2021/06/12 10:51:29;;;;;;;15.48;10.05;;;;;;;-150.07;59.06;63349.84;4955567;29;20032;-80
2021/06/12 10:54:29;;;;;;;12.25;10.70;;;;;;;-150.07;59.47;63274.47;4954409;29;20062;-79
2021/06/12 10:57:17;;;;;;;12.55;9.85;;;;;;;-150.07;59.65;63249.38;4951320;28;20054;-80
2021/06/12 11:00:00;;;;;;;11.70;9.18;;;;;;;-150.07;60.67;63194.94;4954649;29;20059;-79
2021/06/12 11:02:42;;;;;;;14.63;11.32;;;;;;;-150.07;60.61;63138.41;4956713;28;20493;-78
2021/06/12 11:05:27;;;;;;;13.48;9.93;;;;;;;-150.07;60.72;63209.59;4972493;28;20031;-78
2021/06/12 11:08:14;;;;;;;16.55;10.05;;;;;;;-150.07;60.09;63276.56;4954937;28;20099;-79
2021/06/12 11:10:41;;;;;;;10.45;9.48;;;;;;;-150.07;60.42;63207.50;4957005;28;20389;-78
2021/06/12 11:13:22;;;;;;;12.63;11.27;;;;;;;-150.07;61.35;63113.28;4965930;28;20500;-78
2021/06/12 11:15:49;;;;;;;11.52;10.32;;;;;;;-150.07;61.80;63094.44;4952233;28;20082;-79
2021/06/12 11:18:23;;;;;;;13.32;10.88;;;;;;;-150.07;62.20;62709.28;4952123;28;20023;-78
2021/06/12 11:21:02;;;;;;;13.15;10.50;;;;;;;-150.07;62.35;63040.03;4952324;28;20035;-79